createdAt,value
2023-03-11T00:00:19.799Z,1.04
2023-03-11T00:01:19.915Z,1.04
2023-03-11T00:02:20.095Z,1.04
2023-03-11T00:03:20.219Z,1.04
2023-03-11T00:04:20.346Z,1.04
2023-03-11T00:05:20.513Z,1.04
2023-03-11T00:06:20.561Z,1.04
2023-03-11T00:07:20.716Z,1.04
2023-03-11T00:08:20.864Z,1.04
2023-03-11T00:09:21.012Z,1.04
2023-03-11T00:10:21.169Z,1.04
2023-03-11T00:11:21.311Z,1.04
2023-03-11T00:12:21.405Z,1.04
2023-03-11T00:13:21.575Z,1.04
2023-03-11T00:14:21.726Z,1.04
2023-03-11T00:15:21.822Z,1.04
2023-03-11T00:16:22.011Z,1.04
2023-03-11T00:17:22.032Z,1.04
2023-03-11T00:18:22.179Z,1.04
2023-03-11T00:19:22.273Z,1.04
2023-03-11T00:20:22.375Z,1.04
2023-03-11T00:21:22.488Z,1.04
2023-03-11T00:22:22.632Z,1.04
2023-03-11T00:23:22.732Z,1.04
2023-03-11T00:24:22.879Z,1.04
2023-03-11T00:25:22.999Z,1.04
2023-03-11T00:26:23.084Z,1.04
2023-03-11T00:27:23.232Z,1.04
2023-03-11T00:28:23.382Z,1.04
2023-03-11T00:29:23.493Z,1.04
2023-03-11T00:30:23.645Z,1.04
2023-03-11T00:31:23.785Z,1.04
2023-03-11T00:32:23.915Z,1.04
2023-03-11T00:33:24.048Z,1.04
2023-03-11T00:34:24.145Z,1.04
2023-03-11T00:35:24.348Z,1.04
2023-03-11T00:36:24.448Z,1.04
2023-03-11T00:37:24.549Z,1.04
2023-03-11T00:38:24.747Z,1.04
2023-03-11T00:39:24.803Z,1.04
2023-03-11T00:40:24.964Z,1.04
2023-03-11T00:41:25.049Z,1.04
2023-03-11T00:42:25.159Z,1.04
2023-03-11T00:43:25.260Z,1.04
2023-03-11T00:44:25.423Z,1.04
2023-03-11T00:45:25.571Z,1.04
2023-03-11T00:46:25.792Z,1.04
2023-03-11T00:47:25.826Z,1.04
2023-03-11T00:48:25.979Z,1.04
2023-03-11T00:49:26.115Z,1.04
2023-03-11T00:50:26.233Z,1.04
2023-03-11T00:51:26.325Z,1.04
2023-03-11T00:52:26.429Z,1.04
2023-03-11T00:53:26.584Z,1.04
2023-03-11T00:54:26.751Z,1.04
2023-03-11T00:55:26.884Z,1.04
2023-03-11T00:56:26.973Z,1.04
2023-03-11T00:57:27.115Z,1.04
2023-03-11T00:58:27.303Z,1.04
2023-03-11T00:59:27.432Z,1.04
2023-03-11T01:00:27.582Z,1.04
2023-03-11T01:01:27.755Z,1.04
2023-03-11T01:02:27.879Z,1.04
2023-03-11T01:03:27.947Z,1.04
2023-03-11T01:04:28.109Z,1.04
2023-03-11T01:05:28.202Z,1.04
2023-03-11T01:06:39.134Z,1.04
2023-03-11T01:07:28.443Z,1.04
2023-03-11T01:08:28.591Z,1.04
2023-03-11T01:09:28.687Z,1.04
2023-03-11T01:10:28.809Z,1.04
2023-03-11T01:11:28.955Z,1.04
2023-03-11T01:12:29.115Z,1.04
2023-03-11T01:13:29.224Z,1.04
2023-03-11T01:14:29.352Z,1.04
2023-03-11T01:15:29.517Z,1.04
2023-03-11T01:16:29.600Z,1.04
2023-03-11T01:17:29.763Z,1.04
2023-03-11T01:18:29.912Z,1.04
2023-03-11T01:19:30.064Z,1.04
2023-03-11T01:20:30.170Z,1.04
2023-03-11T01:21:30.316Z,1.04
2023-03-11T01:22:30.412Z,1.04
2023-03-11T01:23:30.564Z,1.04
2023-03-11T01:24:30.715Z,1.04
2023-03-11T01:25:30.904Z,1.04
2023-03-11T01:26:31.027Z,1.04
2023-03-11T01:27:31.166Z,1.04
2023-03-11T01:28:31.276Z,1.04
2023-03-11T01:29:31.377Z,1.04
2023-03-11T01:30:31.482Z,1.04
2023-03-11T01:31:31.623Z,1.04
2023-03-11T01:32:31.737Z,1.04
2023-03-11T01:33:31.884Z,1.04
2023-03-11T01:34:32.012Z,1.04
2023-03-11T01:35:32.180Z,1.04
2023-03-11T01:36:32.288Z,1.04
2023-03-11T01:37:32.428Z,1.04
2023-03-11T01:38:32.579Z,1.04
2023-03-11T01:39:32.740Z,1.04
2023-03-11T01:40:32.846Z,1.04
2023-03-11T01:41:32.988Z,1.04
2023-03-11T01:42:33.148Z,1.04
2023-03-11T01:43:33.291Z,1.04
2023-03-11T01:44:33.458Z,1.04
2023-03-11T01:45:33.536Z,1.04
2023-03-11T01:46:33.753Z,1.04
2023-03-11T01:47:33.805Z,1.04
2023-03-11T01:48:33.960Z,1.04
2023-03-11T01:49:34.047Z,1.04
2023-03-11T01:50:34.175Z,1.04
2023-03-11T01:51:34.295Z,1.04
2023-03-11T01:52:34.451Z,1.04
2023-03-11T01:53:34.615Z,1.04
2023-03-11T01:54:34.718Z,1.04
2023-03-11T01:55:34.862Z,1.04
2023-03-11T01:56:34.973Z,1.04
2023-03-11T01:57:35.178Z,1.04
2023-03-11T01:58:35.267Z,1.04
2023-03-11T01:59:35.407Z,1.04
2023-03-11T02:00:35.565Z,1.04
2023-03-11T02:01:37.947Z,1.04
2023-03-11T02:02:35.827Z,1.04
2023-03-11T02:03:35.943Z,1.04
2023-03-11T02:04:36.072Z,1.04
2023-03-11T02:05:36.171Z,1.04
2023-03-11T02:06:36.320Z,1.04
2023-03-11T02:07:36.422Z,1.04
2023-03-11T02:08:36.522Z,1.04
2023-03-11T02:09:36.626Z,1.04
2023-03-11T02:10:36.753Z,1.04
2023-03-11T02:11:36.929Z,1.04
2023-03-11T02:12:37.030Z,1.04
2023-03-11T02:13:37.178Z,1.04
2023-03-11T02:14:37.332Z,1.04
2023-03-11T02:15:39.826Z,1.04
2023-03-11T02:16:37.556Z,1.04
2023-03-11T02:17:37.721Z,1.04
2023-03-11T02:18:37.808Z,1.04
2023-03-11T02:19:37.972Z,1.04
2023-03-11T02:20:38.063Z,1.04
2023-03-11T02:21:38.195Z,1.04
2023-03-11T02:22:38.293Z,1.04
2023-03-11T02:23:38.404Z,1.04
2023-03-11T02:24:38.507Z,1.04
2023-03-11T02:25:38.628Z,1.04
2023-03-11T02:26:38.769Z,1.04
2023-03-11T02:27:38.927Z,1.04
2023-03-11T02:28:39.007Z,1.04
2023-03-11T02:29:39.108Z,1.04
2023-03-11T02:30:39.279Z,1.04
2023-03-11T02:31:41.151Z,1.04
2023-03-11T02:32:39.607Z,1.04
2023-03-11T02:33:39.716Z,1.04
2023-03-11T02:34:39.816Z,1.04
2023-03-11T02:35:40.004Z,1.04
2023-03-11T02:36:40.129Z,1.04
2023-03-11T02:37:40.274Z,1.04
2023-03-11T02:38:40.426Z,1.04
2023-03-11T02:39:40.561Z,1.04
2023-03-11T02:40:40.624Z,1.04
2023-03-11T02:41:40.787Z,1.04
2023-03-11T02:42:40.934Z,1.04
2023-03-11T02:43:41.099Z,1.04
2023-03-11T02:44:41.188Z,1.04
2023-03-11T02:45:41.288Z,1.04
2023-03-11T02:46:41.506Z,1.04
2023-03-11T02:47:41.488Z,1.04
2023-03-11T02:48:41.588Z,1.04
2023-03-11T02:49:41.693Z,1.04
2023-03-11T02:50:41.788Z,1.04
2023-03-11T02:51:41.912Z,1.04
2023-03-11T02:52:42.002Z,1.04
2023-03-11T02:53:42.155Z,1.04
2023-03-11T02:54:42.249Z,1.04
2023-03-11T02:55:42.361Z,1.04
2023-03-11T02:56:42.504Z,1.04
2023-03-11T02:57:42.651Z,1.04
2023-03-11T02:58:42.747Z,1.04
2023-03-11T02:59:42.852Z,1.04
2023-03-11T03:00:43.033Z,1.04
2023-03-11T03:01:43.157Z,1.04
2023-03-11T03:02:43.303Z,1.04
2023-03-11T03:03:43.536Z,1.04
2023-03-11T03:04:43.507Z,1.04
2023-03-11T03:05:43.611Z,1.04
2023-03-11T03:06:43.722Z,1.04
2023-03-11T03:07:43.821Z,1.04
2023-03-11T03:08:43.998Z,1.04
2023-03-11T03:09:44.116Z,1.04
2023-03-11T03:10:44.214Z,1.04
2023-03-11T03:11:44.334Z,1.04
2023-03-11T03:12:44.473Z,1.04
2023-03-11T03:13:44.585Z,1.04
2023-03-11T03:14:44.725Z,1.04
2023-03-11T03:15:44.884Z,1.04
2023-03-11T03:16:45.128Z,1.04
2023-03-11T03:17:45.214Z,1.04
2023-03-11T03:18:45.261Z,1.04
2023-03-11T03:19:45.331Z,1.04
2023-03-11T03:20:45.482Z,1.04
2023-03-11T03:21:45.638Z,1.04
2023-03-11T03:22:45.779Z,1.04
2023-03-11T03:23:45.940Z,1.04
2023-03-11T03:24:46.101Z,1.04
2023-03-11T03:25:46.198Z,1.04
2023-03-11T03:26:46.344Z,1.04
2023-03-11T03:27:46.464Z,1.04
2023-03-11T03:28:46.591Z,1.04
2023-03-11T03:29:46.767Z,1.04
2023-03-11T03:30:46.904Z,1.04
2023-03-11T03:31:47.000Z,1.04
2023-03-11T03:32:47.144Z,1.04
2023-03-11T03:33:47.199Z,1.04
2023-03-11T03:34:47.307Z,1.04
2023-03-11T03:35:47.476Z,1.04
2023-03-11T03:36:47.626Z,1.04
2023-03-11T03:37:47.955Z,1.04
2023-03-11T03:38:47.859Z,1.04
2023-03-11T03:39:47.962Z,1.04
2023-03-11T03:40:48.064Z,1.04
2023-03-11T03:41:48.166Z,1.04
2023-03-11T03:42:48.312Z,1.04
2023-03-11T03:43:48.474Z,1.04
2023-03-11T03:44:48.629Z,1.04
2023-03-11T03:45:48.817Z,1.04
2023-03-11T03:46:48.921Z,1.04
2023-03-11T03:47:49.045Z,1.04
2023-03-11T03:48:49.199Z,1.04
2023-03-11T03:49:49.319Z,1.04
2023-03-11T03:50:49.423Z,1.04
2023-03-11T03:51:49.580Z,1.04
2023-03-11T03:52:49.745Z,1.04
2023-03-11T03:53:49.900Z,1.04
2023-03-11T03:54:50.041Z,1.04
2023-03-11T03:55:50.183Z,1.04
2023-03-11T03:56:50.301Z,1.04
2023-03-11T03:57:50.501Z,1.04
2023-03-11T03:58:50.541Z,1.04
2023-03-11T03:59:50.644Z,1.04
2023-03-11T04:00:50.799Z,1.04
2023-03-11T04:01:50.966Z,1.04
2023-03-11T04:02:51.048Z,1.04
2023-03-11T04:03:51.145Z,1.04
2023-03-11T04:04:51.298Z,1.04
2023-03-11T04:05:51.451Z,1.04
2023-03-11T04:06:51.599Z,1.04
2023-03-11T04:07:51.706Z,1.04
2023-03-11T04:08:51.810Z,1.04
2023-03-11T04:09:51.966Z,1.04
2023-03-11T04:10:52.065Z,1.04
2023-03-11T04:11:52.211Z,1.04
2023-03-11T04:12:52.374Z,1.04
2023-03-11T04:13:52.515Z,1.04
2023-03-11T04:14:52.672Z,1.04
2023-03-11T04:15:52.837Z,1.04
2023-03-11T04:16:53.047Z,1.04
2023-03-11T04:17:53.060Z,1.04
2023-03-11T04:18:53.219Z,1.04
2023-03-11T04:19:53.321Z,1.04
2023-03-11T04:20:54.042Z,1.04
2023-03-11T04:21:53.635Z,1.04
2023-03-11T04:22:53.789Z,1.04
2023-03-11T04:23:53.936Z,1.04
2023-03-11T04:24:54.028Z,1.04
2023-03-11T04:25:54.257Z,1.04
2023-03-11T04:26:54.332Z,1.04
2023-03-11T04:27:54.434Z,1.04
2023-03-11T04:28:54.531Z,1.04
2023-03-11T04:29:54.684Z,1.04
2023-03-11T04:30:54.869Z,1.04
2023-03-11T04:31:54.966Z,1.04
2023-03-11T04:32:55.090Z,1.04
2023-03-11T04:33:55.217Z,1.04
2023-03-11T04:34:55.356Z,1.04
2023-03-11T04:35:55.534Z,1.04
2023-03-11T04:36:55.671Z,1.04
2023-03-11T04:37:55.797Z,1.04
2023-03-11T04:38:55.947Z,1.04
2023-03-11T04:39:56.064Z,1.04
2023-03-11T04:40:56.195Z,1.04
2023-03-11T04:41:56.301Z,1.04
2023-03-11T04:42:56.446Z,1.04
2023-03-11T04:43:56.565Z,1.04
2023-03-11T04:44:56.656Z,1.04
2023-03-11T04:45:56.799Z,1.04
2023-03-11T04:46:56.860Z,1.04
2023-03-11T04:47:57.006Z,1.04
2023-03-11T04:48:57.136Z,1.04
2023-03-11T04:49:57.230Z,1.04
2023-03-11T04:50:57.371Z,1.04
2023-03-11T04:51:57.474Z,1.04
2023-03-11T04:52:57.632Z,1.04
2023-03-11T04:53:57.770Z,1.04
2023-03-11T04:54:57.873Z,1.04
2023-03-11T04:55:58.027Z,1.04
2023-03-11T04:56:58.203Z,1.04
2023-03-11T04:57:58.329Z,1.04
2023-03-11T04:58:58.422Z,2
2023-03-11T04:59:58.573Z,2
2023-03-11T05:00:58.679Z,2
2023-03-11T05:01:58.790Z,2
2023-03-11T05:02:58.974Z,2
2023-03-11T05:03:59.033Z,2
2023-03-11T05:04:59.179Z,2
2023-03-11T05:05:59.239Z,2
2023-03-11T05:06:59.328Z,3.04
2023-03-11T05:07:59.444Z,3.04
2023-03-11T05:08:59.541Z,4
2023-03-11T05:09:59.636Z,5.04
2023-03-11T05:10:59.762Z,5.04
2023-03-11T05:11:59.893Z,7.04
2023-03-11T05:13:00.047Z,8
2023-03-11T05:14:00.193Z,9.04
2023-03-11T05:15:00.297Z,12
2023-03-11T05:16:00.474Z,14
2023-03-11T05:17:00.555Z,15.04
2023-03-11T05:18:00.713Z,20
2023-03-11T05:19:00.824Z,21.04
2023-03-11T05:20:00.950Z,25.04
2023-03-11T05:21:01.116Z,28
2023-03-11T05:22:01.204Z,34
2023-03-11T05:23:01.306Z,39.04
2023-03-11T05:24:01.404Z,44
2023-03-11T05:25:01.615Z,51.04
2023-03-11T05:26:01.712Z,61.04
2023-03-11T05:27:01.863Z,66
2023-03-11T05:28:02.018Z,69.04
2023-03-11T05:29:02.113Z,77.04
2023-03-11T05:30:02.266Z,84
2023-03-11T05:31:02.486Z,100
2023-03-11T05:32:02.532Z,106
2023-03-11T05:33:02.677Z,113.04
2023-03-11T05:34:02.825Z,147.04
2023-03-11T05:35:02.940Z,144
2023-03-11T05:36:03.107Z,165.12
2023-03-11T05:37:03.432Z,177.12
2023-03-11T05:38:03.284Z,196
2023-03-11T05:39:03.382Z,233.12
2023-03-11T05:40:03.541Z,258.08
2023-03-11T05:41:03.701Z,245.12
2023-03-11T05:42:03.835Z,224
2023-03-11T05:43:03.943Z,259.04
2023-03-11T05:44:04.096Z,284
2023-03-11T05:45:04.200Z,304
2023-03-11T05:46:04.339Z,330.24
2023-03-11T05:47:04.394Z,337.28
2023-03-11T05:48:04.507Z,366.08
2023-03-11T05:49:04.679Z,375.04
2023-03-11T05:50:04.808Z,332.16
2023-03-11T05:51:04.966Z,335.04
2023-03-11T05:52:05.077Z,351.04
2023-03-11T05:53:05.210Z,403.2
2023-03-11T05:54:05.355Z,465.28
2023-03-11T05:55:05.521Z,423.04
2023-03-11T05:56:05.673Z,384
2023-03-11T05:57:05.812Z,418.24
2023-03-11T05:58:05.963Z,454.08
2023-03-11T05:59:06.008Z,436.16
2023-03-11T06:00:06.119Z,475.2
2023-03-11T06:01:06.262Z,439.04
2023-03-11T06:02:06.380Z,409.28
2023-03-11T06:03:06.466Z,449.28
2023-03-11T06:04:06.697Z,534.08
2023-03-11T06:05:08.346Z,690.56
2023-03-11T06:06:06.833Z,733.44
2023-03-11T06:07:06.944Z,992
2023-03-11T06:08:07.039Z,1102.08
2023-03-11T06:09:07.182Z,1087.36
2023-03-11T06:10:07.328Z,1089.28
2023-03-11T06:11:07.433Z,954.24
2023-03-11T06:12:07.539Z,1101.44
2023-03-11T06:13:07.680Z,1286.4
2023-03-11T06:14:07.855Z,1495.04
2023-03-11T06:15:07.993Z,1596.16
2023-03-11T06:16:08.153Z,1573.12
2023-03-11T06:17:08.189Z,1515.52
2023-03-11T06:18:08.349Z,1450.24
2023-03-11T06:19:08.497Z,1396.48
2023-03-11T06:20:08.597Z,1492.48
2023-03-11T06:21:08.741Z,1689.6
2023-03-11T06:22:08.839Z,1943.04
2023-03-11T06:23:08.944Z,1788.16
2023-03-11T06:24:09.098Z,1867.52
2023-03-11T06:25:09.229Z,1954.56
2023-03-11T06:26:09.350Z,2305.28
2023-03-11T06:27:09.501Z,2524.16
2023-03-11T06:28:09.628Z,2494.72
2023-03-11T06:29:09.777Z,2376.96
2023-03-11T06:30:09.858Z,2384.64
2023-03-11T06:31:09.998Z,2461.44
2023-03-11T06:32:10.119Z,2106.88
2023-03-11T06:33:10.273Z,1794.56
2023-03-11T06:34:10.413Z,1743.36
2023-03-11T06:35:10.585Z,1762.56
2023-03-11T06:36:10.729Z,1797.12
2023-03-11T06:37:10.777Z,1743.36
2023-03-11T06:38:10.916Z,1884.16
2023-03-11T06:39:11.030Z,1899.52
2023-03-11T06:40:11.126Z,1861.12
2023-03-11T06:41:11.284Z,2050.56
2023-03-11T06:42:11.425Z,2150.4
2023-03-11T06:43:11.525Z,2135.04
2023-03-11T06:44:11.719Z,1822.72
2023-03-11T06:45:11.852Z,1726.72
2023-03-11T06:46:12.326Z,1729.28
2023-03-11T06:47:12.331Z,1703.68
2023-03-11T06:48:12.385Z,1704.96
2023-03-11T06:49:12.540Z,1685.76
2023-03-11T06:50:12.650Z,1928.96
2023-03-11T06:51:12.740Z,2485.76
2023-03-11T06:52:12.841Z,2458.88
2023-03-11T06:53:12.990Z,2122.24
2023-03-11T06:54:13.103Z,2342.4
2023-03-11T06:55:13.188Z,1994.24
2023-03-11T06:56:13.304Z,1930.24
2023-03-11T06:57:13.449Z,1962.24
2023-03-11T06:58:13.552Z,2236.16
2023-03-11T06:59:13.643Z,2264.32
2023-03-11T07:00:13.816Z,2292.48
2023-03-11T07:01:14.004Z,2380.8
2023-03-11T07:02:14.116Z,2256.64
2023-03-11T07:03:14.252Z,2155.52
2023-03-11T07:04:14.405Z,2144
2023-03-11T07:05:14.470Z,1872.64
2023-03-11T07:06:14.614Z,1722.88
2023-03-11T07:07:14.759Z,1720.32
2023-03-11T07:08:14.868Z,1868.8
2023-03-11T07:09:15.025Z,2103.04
2023-03-11T07:10:15.164Z,2375.68
2023-03-11T07:11:15.319Z,2584.32
2023-03-11T07:12:15.465Z,2621.44
2023-03-11T07:13:15.566Z,2718.72
2023-03-11T07:14:15.673Z,2624
2023-03-11T07:15:15.824Z,2407.68
2023-03-11T07:16:16.051Z,2449.92
2023-03-11T07:17:16.120Z,2708.48
2023-03-11T07:18:16.438Z,2639.36
2023-03-11T07:19:16.472Z,2615.04
2023-03-11T07:20:16.512Z,2900.48
2023-03-11T07:21:16.671Z,3089.92
2023-03-11T07:22:16.737Z,3668.48
2023-03-11T07:23:16.830Z,3325.44
2023-03-11T07:24:17.363Z,2836.48
2023-03-11T07:25:17.094Z,2926.08
2023-03-11T07:26:17.237Z,2926.08
2023-03-11T07:27:17.717Z,3089.92
2023-03-11T07:28:17.610Z,2944
2023-03-11T07:29:17.599Z,2785.28
2023-03-11T07:30:18.267Z,2670.08
2023-03-11T07:31:17.953Z,2680.32
2023-03-11T07:32:18.106Z,2831.36
2023-03-11T07:33:18.487Z,2839.04
2023-03-11T07:34:18.204Z,2890.24
2023-03-11T07:35:18.770Z,3128.32
2023-03-11T07:36:18.640Z,3333.12
2023-03-11T07:37:18.560Z,3491.84
2023-03-11T07:38:18.656Z,3363.84
2023-03-11T07:39:19.032Z,3115.52
2023-03-11T07:40:18.916Z,3642.88
2023-03-11T07:41:19.064Z,3937.28
2023-03-11T07:42:19.511Z,4026.88
2023-03-11T07:43:19.713Z,3456
2023-03-11T07:44:19.366Z,3356.16
2023-03-11T07:45:20.141Z,3061.76
2023-03-11T07:46:19.907Z,2764.8
2023-03-11T07:47:19.826Z,2652.16
2023-03-11T07:48:19.972Z,2798.08
2023-03-11T07:49:20.126Z,2831.36
2023-03-11T07:50:20.173Z,2711.04
2023-03-11T07:51:20.277Z,2662.4
2023-03-11T07:52:20.429Z,2703.36
2023-03-11T07:53:20.572Z,3020.8
2023-03-11T07:54:20.681Z,3253.76
2023-03-11T07:55:20.825Z,3450.88
2023-03-11T07:56:20.933Z,3712
2023-03-11T07:57:21.078Z,4308.48
2023-03-11T07:58:21.179Z,4705.28
2023-03-11T07:59:21.287Z,4206.08
2023-03-11T08:00:21.391Z,4060.16
2023-03-11T08:01:21.542Z,4272.64
2023-03-11T08:02:21.713Z,4800
2023-03-11T08:03:21.826Z,4992
2023-03-11T08:04:21.892Z,4751.36
2023-03-11T08:05:22.001Z,5299.2
2023-03-11T08:06:22.112Z,5596.16
2023-03-11T08:07:22.249Z,5381.12
2023-03-11T08:08:22.404Z,5437.44
2023-03-11T08:09:22.505Z,5632
2023-03-11T08:10:22.653Z,5539.84
2023-03-11T08:11:22.802Z,5335.04
2023-03-11T08:12:22.965Z,5350.4
2023-03-11T08:13:23.056Z,4938.24
2023-03-11T08:14:23.175Z,4830.72
2023-03-11T08:15:23.472Z,4966.4
2023-03-11T08:16:23.472Z,5158.4
2023-03-11T08:17:23.623Z,5893.12
2023-03-11T08:18:23.709Z,5294.08
2023-03-11T08:19:23.860Z,4956.16
2023-03-11T08:20:23.961Z,5401.6
2023-03-11T08:21:24.074Z,5468.16
2023-03-11T08:22:24.324Z,5964.8
2023-03-11T08:23:24.325Z,6855.68
2023-03-11T08:24:24.423Z,7843.84
2023-03-11T08:25:24.534Z,6702.08
2023-03-11T08:26:24.683Z,6615.04
2023-03-11T08:27:24.831Z,6609.92
2023-03-11T08:28:24.990Z,6952.96
2023-03-11T08:29:25.084Z,7475.2
2023-03-11T08:30:25.225Z,7633.92
2023-03-11T08:31:25.439Z,7654.4
2023-03-11T08:32:25.530Z,7224.32
2023-03-11T08:33:25.582Z,7644.16
2023-03-11T08:34:25.690Z,8586.24
2023-03-11T08:35:25.792Z,9267.2
2023-03-11T08:36:25.901Z,9989.12
2023-03-11T08:37:26.059Z,9774.08
2023-03-11T08:38:26.143Z,9640.96
2023-03-11T08:39:26.259Z,9431.04
2023-03-11T08:40:26.483Z,9671.68
2023-03-11T08:41:26.550Z,8458.24
2023-03-11T08:42:26.840Z,7710.72
2023-03-11T08:43:26.842Z,7659.52
2023-03-11T08:44:27.048Z,7470.08
2023-03-11T08:45:27.169Z,7680
2023-03-11T08:46:27.393Z,8340.48
2023-03-11T08:47:27.512Z,8581.12
2023-03-11T08:48:27.631Z,9000.96
2023-03-11T08:49:27.789Z,10496
2023-03-11T08:50:27.958Z,10178.56
2023-03-11T08:51:28.086Z,10967.04
2023-03-11T08:52:28.182Z,10516.479
2023-03-11T08:53:28.268Z,10608.64
2023-03-11T08:54:28.412Z,11397.12
2023-03-11T08:55:28.525Z,11919.359
2023-03-11T08:56:28.697Z,12400.64
2023-03-11T08:57:28.821Z,12892.16
2023-03-11T08:58:28.968Z,12390.399
2023-03-11T08:59:29.124Z,12175.359
2023-03-11T09:00:29.241Z,12554.239
2023-03-11T09:01:29.404Z,11755.52
2023-03-11T09:02:29.534Z,12216.319
2023-03-11T09:03:29.575Z,11427.84
2023-03-11T09:04:29.688Z,11929.6
2023-03-11T09:05:29.851Z,11632.64
2023-03-11T09:06:29.979Z,11591.68
2023-03-11T09:07:30.080Z,11663.359
2023-03-11T09:08:30.188Z,10639.359
2023-03-11T09:09:30.329Z,10803.2
2023-03-11T09:10:30.494Z,11048.96
2023-03-11T09:11:30.648Z,11079.68
2023-03-11T09:12:30.784Z,10142.72
2023-03-11T09:13:30.941Z,9743.359
2023-03-11T09:14:31.107Z,10460.16
2023-03-11T09:15:31.261Z,10408.96
2023-03-11T09:16:31.461Z,10536.96
2023-03-11T09:17:31.498Z,9646.08
2023-03-11T09:18:31.656Z,9661.439
2023-03-11T09:19:31.817Z,8980.479
2023-03-11T09:20:31.898Z,8591.359
2023-03-11T09:21:32.016Z,9128.96
2023-03-11T09:22:32.148Z,10526.72
2023-03-11T09:23:32.331Z,11304.96
2023-03-11T09:24:32.456Z,10414.08
2023-03-11T09:25:32.562Z,10762.24
2023-03-11T09:26:32.715Z,10833.92
2023-03-11T09:27:32.858Z,10460.16
2023-03-11T09:28:33.004Z,10752
2023-03-11T09:29:33.161Z,10245.12
2023-03-11T09:30:33.320Z,10967.04
2023-03-11T09:31:33.632Z,12738.56
2023-03-11T09:32:33.632Z,15319.04
2023-03-11T09:33:33.667Z,16107.52
2023-03-11T09:34:33.829Z,14059.52
2023-03-11T09:35:34.032Z,13332.479
2023-03-11T09:36:34.146Z,12922.88
2023-03-11T09:37:34.276Z,16046.08
2023-03-11T09:38:34.392Z,14202.88
2023-03-11T09:39:34.531Z,13660.16
2023-03-11T09:40:34.687Z,15769.6
2023-03-11T09:41:38.265Z,18094.08
2023-03-11T09:42:34.989Z,14776.319
2023-03-11T09:43:35.143Z,14899.199
2023-03-11T09:44:35.331Z,13680.64
2023-03-11T09:45:35.387Z,14039.04
2023-03-11T09:46:35.580Z,12462.08
2023-03-11T09:47:35.588Z,10449.92
2023-03-11T09:48:35.700Z,11847.68
2023-03-11T09:49:35.795Z,11960.319
2023-03-11T09:50:35.903Z,11868.16
2023-03-11T09:51:36.073Z,12032
2023-03-11T09:52:36.199Z,10690.56
2023-03-11T09:53:36.308Z,9722.88
2023-03-11T09:54:36.405Z,9600
2023-03-11T09:55:36.552Z,10286.08
2023-03-11T09:56:36.659Z,11560.96
2023-03-11T09:57:36.759Z,10874.88
2023-03-11T09:58:36.917Z,11130.88
2023-03-11T09:59:37.008Z,10250.24
2023-03-11T10:00:37.152Z,9953.279
2023-03-11T10:01:37.301Z,9415.68
2023-03-11T10:02:37.450Z,9697.279
2023-03-11T10:03:39.710Z,10997.76
2023-03-11T10:04:37.633Z,14438.399
2023-03-11T10:05:37.762Z,16855.04
2023-03-11T10:06:37.869Z,19681.28
2023-03-11T10:07:38.021Z,20992
2023-03-11T10:08:38.132Z,21811.2
2023-03-11T10:09:39.546Z,21340.16
2023-03-11T10:10:38.362Z,19875.84
2023-03-11T10:11:38.476Z,19343.36
2023-03-11T10:12:38.574Z,19097.6
2023-03-11T10:13:38.755Z,16998.4
2023-03-11T10:14:38.877Z,16199.68
2023-03-11T10:15:39.580Z,18370.56
2023-03-11T10:16:39.196Z,18370.56
2023-03-11T10:17:39.283Z,14735.359
2023-03-11T10:18:39.389Z,14407.68
2023-03-11T10:19:39.484Z,14387.199
2023-03-11T10:20:39.621Z,15011.84
2023-03-11T10:21:39.685Z,13875.199
2023-03-11T10:22:39.796Z,15400.96
2023-03-11T10:23:39.886Z,16998.4
2023-03-11T10:24:40.037Z,17571.84
2023-03-11T10:25:40.140Z,16394.24
2023-03-11T10:26:40.300Z,16107.52
2023-03-11T10:27:41.915Z,15308.8
2023-03-11T10:28:40.577Z,15319.04
2023-03-11T10:29:40.696Z,14008.319
2023-03-11T10:30:40.854Z,15104
2023-03-11T10:31:41.072Z,16332.8
2023-03-11T10:32:41.141Z,16691.2
2023-03-11T10:33:41.233Z,18841.6
2023-03-11T10:34:41.366Z,20736
2023-03-11T10:35:41.520Z,21422.08
2023-03-11T10:36:41.602Z,25067.52
2023-03-11T10:37:49.112Z,25784.32
2023-03-11T10:38:41.861Z,22814.72
2023-03-11T10:39:42.017Z,21237.76
2023-03-11T10:40:42.166Z,18974.72
2023-03-11T10:41:42.318Z,18493.44
2023-03-11T10:42:42.464Z,18769.92
2023-03-11T10:43:42.563Z,19537.92
2023-03-11T10:44:42.677Z,19855.36
2023-03-11T10:45:42.781Z,21811.2
2023-03-11T10:46:42.920Z,23367.68
2023-03-11T10:47:43.078Z,22384.64
2023-03-11T10:48:43.176Z,24698.88
2023-03-11T10:49:43.330Z,26521.6
2023-03-11T10:50:43.431Z,26562.56
2023-03-11T10:51:43.581Z,28733.44
2023-03-11T10:52:43.690Z,30351.36
2023-03-11T10:53:43.796Z,32665.6
2023-03-11T10:54:43.891Z,38277.12
2023-03-11T10:55:44.041Z,44974.08
2023-03-11T10:56:44.139Z,42762.24
2023-03-11T10:57:44.286Z,42598.4
2023-03-11T10:58:44.442Z,45834.24
2023-03-11T10:59:44.590Z,48005.12
2023-03-11T11:00:44.702Z,44113.92
2023-03-11T11:01:44.848Z,34672.64
2023-03-11T11:02:44.951Z,30842.88
2023-03-11T11:03:45.103Z,28938.24
2023-03-11T11:04:45.276Z,23347.2
2023-03-11T11:05:45.401Z,18944
2023-03-11T11:06:45.556Z,15616
2023-03-11T11:07:45.708Z,14387.199
2023-03-11T11:08:45.859Z,14254.08
2023-03-11T11:09:45.964Z,15175.68
2023-03-11T11:10:46.126Z,13905.92
2023-03-11T11:11:46.271Z,12636.16
2023-03-11T11:12:46.371Z,10956.8
2023-03-11T11:13:46.472Z,10209.279
2023-03-11T11:14:46.631Z,9635.84
2023-03-11T11:15:46.716Z,9569.28
2023-03-11T11:16:46.903Z,9830.399
2023-03-11T11:17:46.973Z,10526.72
2023-03-11T11:18:49.156Z,11079.68
2023-03-11T11:19:47.182Z,12748.8
2023-03-11T11:20:47.333Z,14796.8
2023-03-11T11:21:47.481Z,15718.399
2023-03-11T11:22:47.634Z,16281.6
2023-03-11T11:23:47.790Z,16609.28
2023-03-11T11:24:47.930Z,17428.48
2023-03-11T11:25:47.988Z,18739.2
2023-03-11T11:26:48.084Z,19681.28
2023-03-11T11:27:48.192Z,19968
2023-03-11T11:28:48.346Z,19251.2
2023-03-11T11:29:48.500Z,18913.28
2023-03-11T11:30:48.726Z,18984.96
2023-03-11T11:31:48.750Z,18032.64
2023-03-11T11:32:48.975Z,17090.56
2023-03-11T11:33:49.002Z,16711.68
2023-03-11T11:34:49.109Z,16476.16
2023-03-11T11:35:49.229Z,16957.44
2023-03-11T11:36:49.351Z,19210.24
2023-03-11T11:37:49.501Z,21422.08
2023-03-11T11:38:49.598Z,22650.88
2023-03-11T11:39:49.706Z,21749.76
2023-03-11T11:40:49.857Z,21442.56
2023-03-11T11:41:49.958Z,22753.28
2023-03-11T11:42:50.051Z,23121.92
2023-03-11T11:43:50.224Z,21544.96
2023-03-11T11:44:50.309Z,19681.28
2023-03-11T11:45:50.514Z,18606.08
2023-03-11T11:46:50.569Z,18155.52
2023-03-11T11:47:50.704Z,17571.84
2023-03-11T11:48:50.810Z,18001.92
2023-03-11T11:49:50.908Z,19650.56
2023-03-11T11:50:51.071Z,20387.84
2023-03-11T11:51:51.235Z,20080.64
2023-03-11T11:52:51.390Z,19609.6
2023-03-11T11:53:51.554Z,18944
2023-03-11T11:54:51.677Z,17807.36
2023-03-11T11:55:51.823Z,17131.52
2023-03-11T11:56:51.986Z,16691.2
2023-03-11T11:57:52.133Z,16424.96
2023-03-11T11:58:52.277Z,16865.28
2023-03-11T11:59:52.431Z,17500.16
2023-03-11T12:00:52.584Z,18309.12
2023-03-11T12:01:52.684Z,18728.96
2023-03-11T12:02:52.824Z,19138.56
2023-03-11T12:03:53.007Z,20408.32
2023-03-11T12:04:53.040Z,22036.48
2023-03-11T12:05:53.217Z,24268.8
2023-03-11T12:06:53.292Z,26152.96
2023-03-11T12:07:53.434Z,27586.56
2023-03-11T12:08:53.545Z,29102.08
2023-03-11T12:09:53.665Z,30597.12
2023-03-11T12:10:53.802Z,31027.2
2023-03-11T12:11:53.898Z,29143.04
2023-03-11T12:12:54.044Z,28815.36
2023-03-11T12:13:54.195Z,28037.12
2023-03-11T12:14:54.297Z,27975.68
2023-03-11T12:15:54.488Z,29143.04
2023-03-11T12:16:54.545Z,29818.88
2023-03-11T12:17:54.655Z,30842.88
2023-03-11T12:18:54.800Z,33771.52
2023-03-11T12:19:54.905Z,37806.08
2023-03-11T12:20:55.026Z,38440.96
2023-03-11T12:21:55.161Z,41369.6
2023-03-11T12:22:55.265Z,47185.92
2023-03-11T12:23:55.411Z,55787.52
2023-03-11T12:24:55.510Z,55828.48
2023-03-11T12:25:55.668Z,64962.56
2023-03-11T12:26:55.811Z,56238.08
2023-03-11T12:27:55.970Z,60088.32
2023-03-11T12:28:56.077Z,83435.52
2023-03-11T12:29:56.228Z,54108.16
2023-03-11T12:30:56.463Z,44605.44
2023-03-11T12:31:56.526Z,37601.28
2023-03-11T12:32:56.572Z,32215.04
2023-03-11T12:33:56.726Z,27893.76
2023-03-11T12:34:56.880Z,23592.96
2023-03-11T12:35:57.028Z,21258.24